KTW weather

Katowice International Airport
Katowice, Silesia, Poland

Public forecast

Using degrees Celsius for public forecast. Weather courtesy of forecast.io.

Current aviation weather report (METAR) for Katowice International Airport

Retrieved 2019/10/20 22:30 UTC (0 seconds ago):

EPKT 202230Z 12004KT CAVOK 12/09 Q1016

Aviation forecast (TAF) for Katowice International Airport

Retrieved 2019/10/20 18:33 UTC (4 hours ago):

TAF EPKT 201730Z 2018/2118 19007KT CAVOK